Time;durP1;ratioP1;P1;durP2;ratioP2;P2;SDS_P1;SDS_P2;PMS_P1;PMS_P2;Temp;Humidity;BMP_temperature;BMP_pressure;BME280_temperature;BME280_humidity;BME280_pressure;Samples;Min_cycle;Max_cycle;Signal;HPM_P1;HPM_P2
2023/11/08 00:02:56;;;;;;;10.18;4.00;;;8.60;99.90;;;;;;15555602;22;20016;-33
2023/11/08 00:09:31;;;;;;;11.68;4.22;;;8.60;99.90;;;;;;15554425;22;20071;-34
2023/11/08 00:16:02;;;;;;;8.85;4.25;;;8.60;99.90;;;;;;15580125;22;20030;-34
2023/11/08 00:22:30;;;;;;;6.45;4.68;;;8.60;99.90;;;;;;15554025;22;20027;-34
2023/11/08 00:29:06;;;;;;;8.65;5.15;;;8.60;99.90;;;;;;15557569;22;20378;-33
2023/11/08 00:35:33;;;;;;;7.70;4.72;;;8.60;99.90;;;;;;15577749;22;20448;-34
2023/11/08 00:42:09;;;;;;;9.05;4.93;;;8.60;99.90;;;;;;15578276;22;20027;-34
2023/11/08 00:48:49;;;;;;;7.72;4.75;;;8.60;99.90;;;;;;15553694;22;20019;-34
2023/11/08 00:55:43;;;;;;;6.32;4.57;;;8.60;99.90;;;;;;15577044;22;20019;-33
2023/11/08 01:02:19;;;;;;;10.57;5.07;;;8.70;99.90;;;;;;15555513;22;20074;-34
2023/11/08 01:09:08;;;;;;;7.32;4.43;;;8.70;99.90;;;;;;15577766;22;20020;-34
2023/11/08 01:15:45;;;;;;;10.10;4.80;;;8.70;99.90;;;;;;15557214;22;20047;-34
2023/11/08 01:22:31;;;;;;;5.45;3.95;;;8.70;99.90;;;;;;15554512;22;20039;-34
2023/11/08 01:29:14;;;;;;;7.43;4.43;;;8.70;99.90;;;;;;15576183;22;20023;-34
2023/11/08 01:35:48;;;;;;;8.18;4.78;;;8.70;99.90;;;;;;15549816;22;20027;-34
2023/11/08 01:42:28;;;;;;;7.05;4.50;;;8.70;99.90;;;;;;15575268;22;20027;-34
2023/11/08 01:48:59;;;;;;;8.73;4.97;;;8.60;99.90;;;;;;15577662;22;20026;-33
2023/11/08 01:55:34;;;;;;;8.93;4.95;;;8.70;99.90;;;;;;15579004;22;20016;-34
2023/11/08 02:02:16;;;;;;;9.57;6.25;;;8.60;99.90;;;;;;15569169;22;20028;-34
2023/11/08 02:08:47;;;;;;;9.18;6.05;;;8.60;99.90;;;;;;15573042;22;20099;-34
2023/11/08 02:15:15;;;;;;;9.13;6.10;;;8.60;99.90;;;;;;15571700;22;20020;-34
2023/11/08 02:21:54;;;;;;;10.27;6.40;;;8.50;99.90;;;;;;15552745;22;20030;-34
2023/11/08 02:28:28;;;;;;;9.68;6.88;;;8.60;99.90;;;;;;15572074;22;20024;-34
2023/11/08 02:35:08;;;;;;;7.78;6.72;;;8.50;99.90;;;;;;15568666;22;20024;-34
2023/11/08 02:41:50;;;;;;;10.57;7.05;;;8.50;99.90;;;;;;15572899;22;20019;-34
2023/11/08 02:48:17;;;;;;;10.95;7.50;;;8.60;99.90;;;;;;15567014;22;20024;-34
2023/11/08 02:54:55;;;;;;;9.35;6.82;;;8.70;99.90;;;;;;15575137;22;20339;-33
2023/11/08 03:01:29;;;;;;;9.68;7.05;;;8.60;99.90;;;;;;15573476;22;20032;-34
2023/11/08 03:08:07;;;;;;;10.73;7.55;;;8.50;99.90;;;;;;15572406;22;20023;-34
2023/11/08 03:14:39;;;;;;;13.52;7.95;;;8.50;99.90;;;;;;15574403;22;20031;-33
2023/11/08 03:21:12;;;;;;;11.27;7.57;;;8.60;99.90;;;;;;15574144;22;20034;-34
2023/11/08 03:27:46;;;;;;;11.45;7.72;;;8.60;99.90;;;;;;15575552;22;20024;-34
2023/11/08 03:34:14;;;;;;;9.85;7.80;;;8.60;99.90;;;;;;15574227;22;20638;-34
2023/11/08 03:40:46;;;;;;;16.33;8.32;;;8.60;99.90;;;;;;15552600;22;20028;-34
2023/11/08 03:47:15;;;;;;;9.23;6.75;;;8.50;99.90;;;;;;15575696;22;20059;-34
2023/11/08 03:53:51;;;;;;;11.45;7.00;;;8.60;99.90;;;;;;15575969;22;20030;-34
2023/11/08 04:00:30;;;;;;;10.63;6.68;;;8.50;99.90;;;;;;15576132;22;20035;-34
2023/11/08 04:07:07;;;;;;;12.65;7.65;;;8.50;99.90;;;;;;15572488;22;20019;-34
2023/11/08 04:13:57;;;;;;;11.05;7.22;;;8.50;99.90;;;;;;15547642;22;20108;-34
2023/11/08 04:20:34;;;;;;;13.23;8.07;;;8.50;99.90;;;;;;15567751;22;20028;-33
2023/11/08 04:27:09;;;;;;;12.40;8.05;;;8.40;99.90;;;;;;15542825;22;20031;-33
2023/11/08 04:33:30;;;;;;;12.30;8.20;;;8.30;99.90;;;;;;15541461;22;20098;-34
2023/11/08 04:39:55;;;;;;;15.33;8.70;;;8.30;99.90;;;;;;15565982;22;20019;-34
2023/11/08 04:47:00;;;;;;;12.70;8.20;;;8.40;99.90;;;;;;15567633;22;20649;-34
2023/11/08 04:53:50;;;;;;;14.50;7.93;;;8.40;99.90;;;;;;15540125;22;20028;-33
2023/11/08 05:00:42;;;;;;;13.02;8.30;;;8.40;99.90;;;;;;15543121;22;20023;-34
2023/11/08 05:07:19;;;;;;;13.65;8.82;;;8.40;99.90;;;;;;15563024;22;20024;-34
2023/11/08 05:13:55;;;;;;;14.77;7.82;;;8.50;99.90;;;;;;15566293;22;20073;-34
2023/11/08 05:20:39;;;;;;;12.75;7.80;;;8.60;99.90;;;;;;15558245;22;20096;-33
2023/11/08 05:27:17;;;;;;;12.85;7.30;;;8.60;99.90;;;;;;15542160;22;20357;-34
2023/11/08 05:33:55;;;;;;;10.90;7.03;;;8.50;99.90;;;;;;15565953;22;20019;-33
2023/11/08 05:40:37;;;;;;;11.93;7.78;;;8.50;99.90;;;;;;15563000;22;20051;-33
2023/11/08 05:47:03;;;;;;;12.00;7.30;;;8.50;99.90;;;;;;15562438;22;20023;-34
2023/11/08 05:53:43;;;;;;;12.27;7.00;;;8.50;99.90;;;;;;15536897;22;20027;-35
2023/11/08 06:00:21;;;;;;;11.60;7.53;;;8.50;99.90;;;;;;15562210;22;20251;-34
2023/11/08 06:07:12;;;;;;;15.38;7.47;;;8.40;99.90;;;;;;15560545;22;20024;-33
2023/11/08 06:13:51;;;;;;;9.38;6.90;;;8.30;99.90;;;;;;15564184;22;20024;-34
2023/11/08 06:20:24;;;;;;;13.00;8.07;;;8.30;99.90;;;;;;15563939;22;20027;-34
2023/11/08 06:26:53;;;;;;;11.60;7.88;;;8.40;99.90;;;;;;15566511;22;20024;-33
2023/11/08 06:33:34;;;;;;;10.73;7.70;;;8.40;99.90;;;;;;15563252;22;20019;-33
2023/11/08 06:40:20;;;;;;;13.55;8.00;;;8.40;99.90;;;;;;15562700;22;20027;-34
2023/11/08 06:47:01;;;;;;;14.60;8.23;;;8.50;99.90;;;;;;15563906;22;20020;-33
2023/11/08 06:53:35;;;;;;;13.93;8.95;;;8.50;99.90;;;;;;15543964;22;20023;-33
2023/11/08 07:00:24;;;;;;;14.95;8.93;;;8.60;99.90;;;;;;15542539;22;20047;-34
2023/11/08 07:07:23;;;;;;;13.02;8.10;;;8.60;99.90;;;;;;15562908;22;20027;-34
2023/11/08 07:14:06;;;;;;;11.43;7.68;;;8.60;99.90;;;;;;15569491;22;20027;-34
2023/11/08 07:20:48;;;;;;;10.63;7.70;;;8.60;99.90;;;;;;15561087;22;20035;-34
2023/11/08 07:27:44;;;;;;;17.25;9.18;;;8.60;99.90;;;;;;15547750;22;20100;-33
2023/11/08 07:34:18;;;;;;;14.93;9.02;;;8.60;99.90;;;;;;15566855;22;20016;-33
2023/11/08 07:40:58;;;;;;;13.40;9.05;;;8.70;99.90;;;;;;15560405;22;20068;-34
2023/11/08 07:47:46;;;;;;;13.18;7.85;;;8.70;99.90;;;;;;15564215;22;20089;-33
2023/11/08 07:54:46;;;;;;;12.18;8.32;;;8.70;99.90;;;;;;15563233;22;20031;-34
2023/11/08 08:01:58;;;;;;;10.15;7.43;;;8.70;99.90;;;;;;15567160;22;20023;-34
2023/11/08 08:09:14;;;;;;;12.60;7.95;;;8.70;99.90;;;;;;15568492;22;20026;-33
2023/11/08 08:15:52;;;;;;;13.30;7.25;;;8.70;99.90;;;;;;15572914;22;20022;-34
2023/11/08 08:22:23;;;;;;;14.00;7.57;;;8.70;99.90;;;;;;15562763;22;20038;-34
2023/11/08 08:29:09;;;;;;;10.23;7.07;;;8.80;99.90;;;;;;15542464;22;20079;-34
2023/11/08 08:35:49;;;;;;;14.50;7.25;;;8.80;99.90;;;;;;15541488;22;20024;-34
2023/11/08 08:42:41;;;;;;;10.93;6.88;;;8.90;99.90;;;;;;15564424;22;20324;-34
2023/11/08 08:49:23;;;;;;;9.18;6.57;;;8.80;99.90;;;;;;15562806;22;20024;-34
2023/11/08 08:55:54;;;;;;;9.90;7.20;;;8.80;99.90;;;;;;15539083;22;20131;-34
2023/11/08 09:02:44;;;;;;;10.45;7.18;;;8.90;99.90;;;;;;15560076;22;20034;-34
2023/11/08 09:09:23;;;;;;;9.63;6.50;;;8.90;99.90;;;;;;15566640;22;20024;-34
2023/11/08 09:16:08;;;;;;;9.70;6.00;;;9.00;99.90;;;;;;15566169;22;20019;-34
2023/11/08 09:22:46;;;;;;;;;;;9.00;99.90;;;;;;15561195;22;20399;-34
2023/11/08 09:29:41;;;;;;;10.63;5.30;;;9.10;99.90;;;;;;15564413;22;19915;-34
2023/11/08 09:36:19;;;;;;;14.52;5.45;;;9.10;99.90;;;;;;15537331;22;20094;-34
2023/11/08 09:42:56;;;;;;;7.50;4.32;;;9.10;99.90;;;;;;15569571;22;20042;-34
2023/11/08 09:49:42;;;;;;;11.17;4.33;;;9.10;99.90;;;;;;15565650;22;20026;-33
2023/11/08 09:56:39;;;;;;;7.72;3.38;;;9.40;99.90;;;;;;15562821;22;20030;-34
2023/11/08 10:03:13;;;;;;;5.70;2.70;;;9.60;99.90;;;;;;15568518;22;20145;-34
2023/11/08 10:09:53;;;;;;;6.90;2.67;;;9.60;99.90;;;;;;15565536;22;20477;-34
2023/11/08 10:16:54;;;;;;;7.70;2.40;;;9.90;99.90;;;;;;15568735;22;20023;-34
2023/11/08 10:24:16;;;;;;;4.68;1.90;;;10.10;99.90;;;;;;15490880;23;20024;-34
2023/11/08 10:30:52;;;;;;;7.93;1.93;;;10.00;99.90;;;;;;15493522;23;20024;-33
2023/11/08 10:37:37;;;;;;;4.50;1.80;;;10.10;99.90;;;;;;15490098;23;20028;-34
2023/11/08 10:44:37;;;;;;;4.07;1.58;;;10.30;99.90;;;;;;15482848;23;20024;-34
2023/11/08 10:51:25;;;;;;;4.28;1.20;;;10.70;99.90;;;;;;15488062;23;20024;-34
2023/11/08 10:58:12;;;;;;;4.32;1.30;;;10.70;99.90;;;;;;15471853;23;20016;-33
2023/11/08 11:05:03;;;;;;;7.93;1.40;;;10.60;99.90;;;;;;15489855;23;20024;-34
2023/11/08 11:11:50;;;;;;;5.20;1.10;;;10.70;99.90;;;;;;15488470;23;20047;-34
2023/11/08 11:18:40;;;;;;;10.80;1.25;;;10.50;99.90;;;;;;15493374;22;20216;-34
2023/11/08 11:26:05;;;;;;;5.88;1.20;;;10.60;99.90;;;;;;15567903;22;20368;-34
2023/11/08 11:32:34;;;;;;;5.13;1.33;;;10.60;99.90;;;;;;15565680;22;20141;-34
2023/11/08 11:39:22;;;;;;;5.93;1.02;;;10.50;99.90;;;;;;15536944;22;20031;-34
2023/11/08 11:46:10;;;;;;;6.20;1.30;;;10.50;99.90;;;;;;15564342;22;20043;-34
2023/11/08 11:52:59;;;;;;;7.30;1.48;;;10.50;99.90;;;;;;15542535;22;20055;-34
2023/11/08 11:59:31;;;;;;;4.50;0.88;;;10.60;99.90;;;;;;15547421;22;20107;-33
2023/11/08 12:05:57;;;;;;;6.03;0.80;;;10.70;99.90;;;;;;15557380;22;20142;-34
2023/11/08 12:12:43;;;;;;;4.63;0.88;;;11.00;99.90;;;;;;15568073;22;20026;-34
2023/11/08 12:19:39;;;;;;;5.63;1.20;;;11.00;99.90;;;;;;15569743;22;20524;-34
2023/11/08 12:26:37;;;;;;;3.58;0.85;;;11.00;99.90;;;;;;15567832;22;20089;-34
2023/11/08 12:33:28;;;;;;;5.40;1.00;;;10.80;99.90;;;;;;15540139;22;20027;-34
2023/11/08 12:39:45;;;;;;;4.30;0.85;;;10.80;99.90;;;;;;15563302;22;20454;-34
2023/11/08 12:46:28;;;;;;;6.20;1.48;;;10.90;99.90;;;;;;15566362;22;20078;-34
2023/11/08 12:53:01;;;;;;;5.30;0.90;;;10.90;99.90;;;;;;15542642;22;20019;-35
2023/11/08 12:59:20;;;;;;;3.92;1.10;;;11.00;99.90;;;;;;15565240;22;20023;-34
2023/11/08 13:05:53;;;;;;;3.83;0.80;;;11.00;99.90;;;;;;15559493;22;20024;-34
2023/11/08 13:12:40;;;;;;;5.80;1.50;;;11.00;99.90;;;;;;15542455;22;20023;-34
2023/11/08 13:19:27;;;;;;;5.40;1.00;;;10.90;99.90;;;;;;15563203;22;20027;-34
2023/11/08 13:26:04;;;;;;;6.40;1.10;;;11.00;99.90;;;;;;15562899;22;20339;-34
2023/11/08 13:32:46;;;;;;;6.05;0.93;;;11.10;99.90;;;;;;15567493;22;20020;-34
2023/11/08 13:39:20;;;;;;;5.05;1.00;;;11.10;99.90;;;;;;15566071;22;20031;-34
2023/11/08 13:45:58;;;;;;;5.90;0.80;;;11.10;99.90;;;;;;15563575;22;20042;-34
2023/11/08 13:52:40;;;;;;;5.00;0.95;;;11.00;99.90;;;;;;15563728;22;20019;-34
2023/11/08 13:59:51;;;;;;;3.53;0.90;;;10.90;99.90;;;;;;15560314;22;20500;-34
2023/11/08 14:06:22;;;;;;;5.30;1.15;;;10.90;99.90;;;;;;15561113;22;20027;-34
2023/11/08 14:12:56;;;;;;;;;;;10.90;99.90;;;;;;15564343;22;20030;-34
2023/11/08 14:19:23;;;;;;;4.88;0.90;;;11.00;99.90;;;;;;15558272;22;19915;-34
2023/11/08 14:26:09;;;;;;;5.32;0.82;;;10.90;99.90;;;;;;15565650;22;20466;-35
2023/11/08 14:32:43;;;;;;;1.35;0.52;;;10.90;99.90;;;;;;15562074;22;20020;-34
2023/11/08 14:38:57;;;;;;;4.55;1.02;;;10.90;99.90;;;;;;15563274;22;20154;-35
2023/11/08 14:45:30;;;;;;;4.93;0.77;;;10.80;99.90;;;;;;15570644;22;20046;-34
2023/11/08 14:51:54;;;;;;;;;;;10.70;99.90;;;;;;15571448;22;20353;-34
2023/11/08 14:58:27;;;;;;;3.10;1.20;;;10.70;99.90;;;;;;15570670;22;19922;-34
2023/11/08 15:05:00;;;;;;;4.70;0.95;;;10.70;99.90;;;;;;15566917;22;20024;-34
2023/11/08 15:11:37;;;;;;;3.20;0.70;;;10.60;99.90;;;;;;15568120;22;20031;-34
2023/11/08 15:19:02;;;;;;;2.03;0.55;;;10.60;99.90;;;;;;15569078;22;20020;-34
2023/11/08 15:25:57;;;;;;;6.57;0.80;;;10.50;99.90;;;;;;15499149;23;20355;-34
2023/11/08 15:32:40;;;;;;;4.15;0.70;;;10.40;99.90;;;;;;15502143;23;20020;-34
2023/11/08 15:39:07;;;;;;;4.68;0.80;;;10.40;99.90;;;;;;15502851;23;20604;-34
2023/11/08 15:45:45;;;;;;;4.10;0.80;;;10.30;99.90;;;;;;15502944;23;20031;-34
2023/11/08 15:52:29;;;;;;;3.42;0.80;;;10.20;99.90;;;;;;15497733;23;20159;-34
2023/11/08 15:59:01;;;;;;;4.18;1.00;;;10.10;99.90;;;;;;15501761;23;20024;-34
2023/11/08 16:05:39;;;;;;;2.75;0.68;;;10.10;99.90;;;;;;15483132;23;20032;-34
2023/11/08 16:12:10;;;;;;;5.57;0.82;;;10.00;85.10;;;;;;15476084;23;20577;-34
2023/11/08 16:18:39;;;;;;;5.95;0.95;;;10.00;82.30;;;;;;15499590;23;20020;-34
2023/11/08 16:25:20;;;;;;;2.92;0.90;;;10.00;99.90;;;;;;15574536;22;20023;-34
2023/11/08 16:31:52;;;;;;;5.67;0.90;;;10.00;79.30;;;;;;15575002;22;20027;-34
2023/11/08 16:38:31;;;;;;;3.35;0.77;;;9.90;54.80;;;;;;15577452;22;20024;-33
2023/11/08 16:45:08;;;;;;;5.20;0.88;;;9.90;72.30;;;;;;15574246;22;20096;-33
2023/11/08 16:51:36;;;;;;;4.43;0.70;;;9.90;91.00;;;;;;15578869;22;20023;-34
2023/11/08 16:58:17;;;;;;;4.05;1.10;;;9.80;55.40;;;;;;15556782;22;20058;-34
2023/11/08 17:04:56;;;;;;;5.32;0.80;;;9.80;67.50;;;;;;15577153;22;20101;-34
2023/11/08 17:11:30;;;;;;;6.00;1.98;;;9.80;79.60;;;;;;15555234;22;20469;-34
2023/11/08 17:18:09;;;;;;;4.10;0.85;;;9.70;63.70;;;;;;15578343;22;20041;-34
2023/11/08 17:24:49;;;;;;;6.72;1.27;;;9.70;59.70;;;;;;15576982;22;20369;-33
2023/11/08 17:31:35;;;;;;;4.07;0.85;;;9.80;55.10;;;;;;15575380;22;20020;-34
2023/11/08 17:38:18;;;;;;;2.70;0.80;;;9.80;85.80;;;;;;15573983;22;20090;-34
2023/11/08 17:44:59;;;;;;;2.95;0.80;;;9.80;99.90;;;;;;15576391;22;20026;-34
2023/11/08 17:51:30;;;;;;;3.30;0.90;;;9.70;87.80;;;;;;15577118;22;20527;-34
2023/11/08 17:58:14;;;;;;;2.83;0.80;;;9.70;90.40;;;;;;15577397;22;20520;-34
2023/11/08 18:04:46;;;;;;;;;;;9.70;82.80;;;;;;15575865;22;20331;-34
2023/11/08 18:11:29;;;;;;;2.43;0.70;;;9.60;55.90;;;;;;15578158;22;19986;-34
2023/11/08 18:18:07;;;;;;;7.63;1.10;;;9.70;59.10;;;;;;15577598;22;20098;-34
2023/11/08 18:24:51;;;;;;;3.50;0.70;;;9.60;95.10;;;;;;15558129;22;20262;-34
2023/11/08 18:31:34;;;;;;;3.42;0.77;;;9.50;99.90;;;;;;15579784;22;20023;-34
2023/11/08 18:38:30;;;;;;;2.17;0.60;;;9.50;99.90;;;;;;15579193;22;20031;-34
2023/11/08 18:45:22;;;;;;;5.22;0.80;;;9.40;99.90;;;;;;15582008;22;20020;-34
2023/11/08 18:52:13;;;;;;;2.72;0.85;;;9.40;99.90;;;;;;15580450;22;20016;-33
2023/11/08 18:59:06;;;;;;;1.20;0.60;;;9.50;99.90;;;;;;15579360;22;20059;-33
2023/11/08 19:05:49;;;;;;;4.03;0.98;;;9.50;99.90;;;;;;15553219;22;20020;-34
2023/11/08 19:12:40;;;;;;;4.43;0.77;;;9.50;99.90;;;;;;15554805;22;20022;-34
2023/11/08 19:19:19;;;;;;;3.03;0.70;;;9.30;99.90;;;;;;15579555;22;20024;-34
2023/11/08 19:26:10;;;;;;;5.25;0.70;;;9.40;99.90;;;;;;15580420;22;20020;-34
2023/11/08 19:32:53;;;;;;;3.22;0.60;;;9.30;99.90;;;;;;15578488;22;20049;-34
2023/11/08 19:39:29;;;;;;;3.78;1.30;;;9.30;99.90;;;;;;15575575;22;20446;-34
2023/11/08 19:46:06;;;;;;;7.35;0.80;;;9.10;99.90;;;;;;15578363;22;20019;-34
2023/11/08 19:52:41;;;;;;;3.10;0.80;;;8.80;99.90;;;;;;15578677;22;20514;-34
2023/11/08 19:59:17;;;;;;;4.13;1.00;;;8.70;99.90;;;;;;15577674;22;20162;-34
2023/11/08 20:05:47;;;;;;;4.97;0.90;;;8.70;99.90;;;;;;15574971;22;20366;-34
2023/11/08 20:12:07;;;;;;;3.72;1.00;;;8.60;99.90;;;;;;15573361;22;20027;-34
2023/11/08 20:18:31;;;;;;;2.45;0.70;;;8.60;99.90;;;;;;15577146;22;20016;-34
2023/11/08 20:25:15;;;;;;;3.70;0.60;;;8.70;99.90;;;;;;15576478;22;20046;-34
2023/11/08 20:31:52;;;;;;;3.85;0.80;;;8.60;99.90;;;;;;15549501;22;20410;-35
2023/11/08 20:38:31;;;;;;;5.10;0.90;;;8.50;99.90;;;;;;15579485;22;20513;-33
2023/11/08 20:45:16;;;;;;;3.80;0.70;;;8.40;99.90;;;;;;15577075;22;20024;-34
2023/11/08 20:51:56;;;;;;;2.03;0.63;;;8.50;99.90;;;;;;15577184;22;20020;-34
2023/11/08 20:58:49;;;;;;;4.03;0.73;;;8.50;99.90;;;;;;15576848;22;20020;-34
2023/11/08 21:05:37;;;;;;;1.45;0.50;;;8.50;99.90;;;;;;15553247;22;20043;-34
2023/11/08 21:12:28;;;;;;;4.82;0.80;;;8.50;99.90;;;;;;15573670;22;20035;-34
2023/11/08 21:19:14;;;;;;;2.33;0.75;;;8.40;99.90;;;;;;15574790;22;20027;-34
2023/11/08 21:26:02;;;;;;;4.53;0.85;;;8.50;99.90;;;;;;15574922;22;20030;-34
2023/11/08 21:32:59;;;;;;;1.20;0.60;;;8.40;99.90;;;;;;15574868;22;20026;-34
2023/11/08 21:39:39;;;;;;;2.00;0.70;;;8.40;99.90;;;;;;15579522;22;20038;-34
2023/11/08 21:46:29;;;;;;;2.85;1.00;;;8.40;99.90;;;;;;15577268;22;20090;-33
2023/11/08 21:53:14;;;;;;;2.55;0.90;;;8.30;99.90;;;;;;15580879;22;20798;-34
2023/11/08 22:00:00;;;;;;;3.25;1.13;;;8.30;99.90;;;;;;15578677;22;20077;-34
2023/11/08 22:06:41;;;;;;;2.28;1.02;;;8.30;99.90;;;;;;15579644;22;20047;-34
2023/11/08 22:13:35;;;;;;;4.15;0.95;;;8.20;99.90;;;;;;15577194;22;20034;-34
2023/11/08 22:20:09;;;;;;;3.28;1.23;;;8.30;99.90;;;;;;15580062;22;20024;-34
2023/11/08 22:26:49;;;;;;;1.80;0.88;;;8.30;99.90;;;;;;15555923;22;20066;-34
2023/11/08 22:33:23;;;;;;;4.45;1.10;;;8.30;99.90;;;;;;15579998;22;20158;-34
2023/11/08 22:40:00;;;;;;;2.03;0.90;;;8.30;99.90;;;;;;15579140;22;20031;-34
2023/11/08 22:46:31;;;;;;;3.38;0.90;;;8.40;99.90;;;;;;15579465;22;20026;-34
2023/11/08 22:53:03;;;;;;;2.53;1.00;;;8.40;99.90;;;;;;15578278;22;20059;-34
2023/11/08 22:59:51;;;;;;;3.88;1.30;;;8.50;99.90;;;;;;15581244;22;20217;-34
2023/11/08 23:06:36;;;;;;;1.90;0.95;;;8.60;99.90;;;;;;15558194;22;20102;-34
2023/11/08 23:13:15;;;;;;;4.03;1.23;;;8.60;99.90;;;;;;15557116;22;20086;-35
2023/11/08 23:19:58;;;;;;;2.85;1.10;;;8.60;99.90;;;;;;15576688;22;20019;-34
2023/11/08 23:26:43;;;;;;;2.90;1.17;;;8.60;99.90;;;;;;15579866;22;20023;-34
2023/11/08 23:33:29;;;;;;;4.70;1.30;;;8.60;99.90;;;;;;15556679;22;20154;-34
2023/11/08 23:40:13;;;;;;;2.38;1.10;;;8.60;99.90;;;;;;15581980;22;20043;-34
2023/11/08 23:47:12;;;;;;;3.45;1.20;;;8.60;99.90;;;;;;15575931;22;20027;-34
2023/11/08 23:54:03;;;;;;;2.08;1.00;;;8.60;99.90;;;;;;15557335;22;20353;-34
